createdAt,value
2019-01-30T00:01:57.618Z,99.90
2019-01-30T00:04:27.897Z,99.90
2019-01-30T00:06:58.091Z,99.90
2019-01-30T00:09:28.065Z,99.90
2019-01-30T00:11:58.023Z,99.90
2019-01-30T00:14:28.269Z,99.90
2019-01-30T00:16:58.532Z,99.90
2019-01-30T00:19:28.472Z,99.90
2019-01-30T00:21:58.620Z,99.90
2019-01-30T00:24:28.562Z,99.90
2019-01-30T00:26:58.459Z,99.90
2019-01-30T00:29:28.449Z,99.90
2019-01-30T00:31:58.383Z,99.90
2019-01-30T00:34:28.336Z,99.90
2019-01-30T00:36:58.622Z,99.90
2019-01-30T00:39:28.580Z,99.90
2019-01-30T00:41:58.553Z,99.90
2019-01-30T00:44:28.537Z,99.90
2019-01-30T00:46:58.387Z,99.90
2019-01-30T00:49:28.358Z,99.90
2019-01-30T00:51:58.329Z,99.90
2019-01-30T00:54:32.157Z,99.90
2019-01-30T00:56:59.830Z,99.90
2019-01-30T00:59:29.914Z,99.90
2019-01-30T01:01:59.850Z,99.90
2019-01-30T01:04:29.787Z,99.90
2019-01-30T01:06:59.753Z,99.90
2019-01-30T01:09:29.722Z,99.90
2019-01-30T01:11:59.677Z,99.90
2019-01-30T01:14:29.524Z,99.90
2019-01-30T01:16:59.410Z,99.90
2019-01-30T01:19:29.676Z,99.90
2019-01-30T01:21:59.670Z,99.90
2019-01-30T01:24:30.071Z,99.90
2019-01-30T01:27:00.056Z,99.90
2019-01-30T01:29:29.917Z,99.90
2019-01-30T01:31:59.980Z,99.90
2019-01-30T01:34:29.938Z,99.90
2019-01-30T01:36:59.903Z,99.90
2019-01-30T01:39:29.845Z,99.90
2019-01-30T01:41:59.805Z,99.90
2019-01-30T01:44:29.728Z,99.90
2019-01-30T01:46:59.647Z,99.90
2019-01-30T01:49:29.653Z,99.90
2019-01-30T01:51:59.553Z,99.90
2019-01-30T01:54:29.545Z,99.90
2019-01-30T01:56:59.443Z,99.90
2019-01-30T01:59:29.725Z,99.90
2019-01-30T02:01:59.637Z,99.90
2019-01-30T02:04:29.621Z,99.90
2019-01-30T02:06:59.499Z,99.90
2019-01-30T02:09:29.406Z,99.90
2019-01-30T02:11:59.314Z,99.90
2019-01-30T02:14:29.370Z,99.90
2019-01-30T02:16:59.234Z,99.90
2019-01-30T02:19:29.164Z,99.90
2019-01-30T02:21:59.068Z,99.90
2019-01-30T02:24:29.003Z,99.90
2019-01-30T02:26:58.925Z,99.90
2019-01-30T02:29:28.782Z,99.90
2019-01-30T02:31:58.790Z,99.90
2019-01-30T02:34:28.730Z,99.90
2019-01-30T02:36:59.119Z,99.90
2019-01-30T02:39:29.184Z,99.90
2019-01-30T02:41:59.080Z,99.90
2019-01-30T02:44:29.047Z,99.90
2019-01-30T02:46:59.067Z,99.90
2019-01-30T02:49:28.958Z,99.90
2019-01-30T02:51:58.816Z,99.90
2019-01-30T02:54:28.744Z,99.90
2019-01-30T02:56:58.578Z,99.90
2019-01-30T02:59:28.519Z,99.90
2019-01-30T03:02:13.613Z,99.90
2019-01-30T03:04:43.549Z,99.90
2019-01-30T03:07:13.538Z,99.90
2019-01-30T03:09:43.483Z,99.90
2019-01-30T03:12:13.393Z,99.90
2019-01-30T03:14:43.439Z,99.90
2019-01-30T03:17:13.365Z,99.90
2019-01-30T03:19:43.259Z,99.90
2019-01-30T03:22:13.193Z,99.90
2019-01-30T03:24:43.265Z,99.90
2019-01-30T03:27:13.119Z,99.90
2019-01-30T03:29:43.054Z,99.90
2019-01-30T03:32:12.982Z,99.90
2019-01-30T03:34:42.943Z,99.90
2019-01-30T03:37:12.838Z,99.90
2019-01-30T03:39:43.110Z,99.90
2019-01-30T03:42:13.011Z,99.90
2019-01-30T03:44:42.952Z,99.90
2019-01-30T03:47:12.897Z,99.90
2019-01-30T03:49:42.945Z,99.90
2019-01-30T03:52:13.361Z,99.90
2019-01-30T03:54:43.339Z,99.80
2019-01-30T03:57:13.270Z,99.90
2019-01-30T03:59:43.595Z,99.90
2019-01-30T04:02:13.510Z,99.90
2019-01-30T04:04:43.441Z,99.90
2019-01-30T04:07:13.364Z,99.90
2019-01-30T04:09:43.381Z,99.90
2019-01-30T04:12:13.273Z,99.90
2019-01-30T04:14:43.210Z,99.90
2019-01-30T04:17:13.105Z,99.90
2019-01-30T04:19:42.986Z,99.90
2019-01-30T04:22:12.908Z,99.90
2019-01-30T04:24:42.785Z,99.80
2019-01-30T04:27:12.710Z,99.90
2019-01-30T04:29:42.977Z,99.40
2019-01-30T04:32:12.909Z,99.60
2019-01-30T04:34:42.820Z,99.60
2019-01-30T04:37:13.066Z,99.80
2019-01-30T04:39:42.998Z,99.70
2019-01-30T04:42:12.937Z,99.70
2019-01-30T04:44:42.878Z,99.50
2019-01-30T04:47:12.851Z,99.50
2019-01-30T04:49:42.772Z,99.40
2019-01-30T04:52:12.722Z,99.50
2019-01-30T04:54:42.649Z,99.50
2019-01-30T04:57:12.726Z,99.70
2019-01-30T04:59:42.771Z,99.70
2019-01-30T05:02:12.639Z,99.50
2019-01-30T05:04:42.549Z,99.40
2019-01-30T05:07:12.807Z,99.60
2019-01-30T05:09:42.732Z,99.80
2019-01-30T05:12:12.719Z,99.80
2019-01-30T05:14:42.757Z,99.80
2019-01-30T05:17:12.717Z,99.60
2019-01-30T05:19:42.622Z,99.90
2019-01-30T05:22:12.568Z,99.80
2019-01-30T05:24:42.403Z,99.80
2019-01-30T05:27:12.346Z,99.50
2019-01-30T05:29:42.341Z,99.20
2019-01-30T05:32:12.262Z,99.10
2019-01-30T05:34:42.191Z,98.40
2019-01-30T05:37:12.129Z,98.20
2019-01-30T05:39:41.969Z,98.70
2019-01-30T05:42:11.874Z,98.60
2019-01-30T05:44:41.821Z,98.60
2019-01-30T05:47:11.743Z,98.30
2019-01-30T05:49:41.610Z,97.90
2019-01-30T05:52:11.873Z,98.00
2019-01-30T05:54:41.795Z,97.80
2019-01-30T05:57:11.805Z,97.80
2019-01-30T05:59:41.723Z,97.70
2019-01-30T06:02:12.601Z,97.60
2019-01-30T06:04:42.602Z,97.90
2019-01-30T06:07:12.521Z,97.70
2019-01-30T06:09:42.394Z,97.70
2019-01-30T06:12:12.365Z,97.50
2019-01-30T06:14:42.274Z,97.20
2019-01-30T06:17:12.581Z,97.10
2019-01-30T06:19:42.624Z,97.00
2019-01-30T06:22:12.569Z,96.90
2019-01-30T06:24:42.531Z,96.90
2019-01-30T06:27:15.727Z,96.70
2019-01-30T06:29:45.557Z,96.50
2019-01-30T06:32:21.726Z,96.30
2019-01-30T06:34:47.194Z,96.10
2019-01-30T06:37:18.355Z,96.10
2019-01-30T06:39:48.285Z,96.10
2019-01-30T06:42:18.235Z,95.90
2019-01-30T06:44:48.297Z,95.90
2019-01-30T06:47:18.265Z,95.80
2019-01-30T06:49:48.398Z,96.00
2019-01-30T06:52:18.345Z,95.40
2019-01-30T06:54:48.313Z,95.40
2019-01-30T06:57:18.244Z,94.80
2019-01-30T06:59:48.221Z,95.20
2019-01-30T07:02:18.132Z,95.10
2019-01-30T07:04:49.385Z,94.80
2019-01-30T07:07:19.292Z,94.60
2019-01-30T07:09:49.202Z,94.10
2019-01-30T07:12:19.120Z,93.70
2019-01-30T07:14:49.083Z,93.50
2019-01-30T07:17:19.011Z,93.60
2019-01-30T07:19:49.019Z,93.40
2019-01-30T07:22:19.213Z,93.60
2019-01-30T07:24:49.131Z,93.60
2019-01-30T07:27:19.189Z,93.70
2019-01-30T07:29:49.081Z,93.40
2019-01-30T07:32:18.994Z,93.20
2019-01-30T07:34:49.123Z,93.20
2019-01-30T07:37:19.046Z,93.30
2019-01-30T07:39:49.009Z,93.20
2019-01-30T07:42:18.922Z,93.60
2019-01-30T07:44:50.881Z,93.20
2019-01-30T07:47:20.425Z,93.30
2019-01-30T07:49:50.376Z,93.20
2019-01-30T07:52:20.301Z,93.20
2019-01-30T07:54:50.378Z,93.00
2019-01-30T07:57:20.340Z,92.40
2019-01-30T07:59:50.288Z,92.20
2019-01-30T08:02:21.889Z,92.20
2019-01-30T08:04:51.956Z,92.30
2019-01-30T08:07:21.845Z,92.20
2019-01-30T08:09:51.777Z,91.80
2019-01-30T08:12:21.725Z,91.80
2019-01-30T08:14:51.713Z,91.70
2019-01-30T08:17:21.657Z,91.40
2019-01-30T08:19:52.056Z,92.50
2019-01-30T08:22:22.210Z,91.40
2019-01-30T08:24:52.177Z,91.40
2019-01-30T08:27:22.167Z,91.40
2019-01-30T08:29:52.267Z,91.10
2019-01-30T08:32:22.453Z,91.50
2019-01-30T08:34:52.361Z,90.50
2019-01-30T08:37:22.202Z,89.80
2019-01-30T08:39:52.122Z,90.10
2019-01-30T08:42:22.029Z,88.40
2019-01-30T08:44:51.898Z,89.50
2019-01-30T08:47:21.826Z,89.30
2019-01-30T08:49:52.216Z,89.60
2019-01-30T08:52:22.182Z,89.70
2019-01-30T08:54:52.123Z,88.80
2019-01-30T08:57:22.086Z,89.40
2019-01-30T08:59:52.028Z,90.30
2019-01-30T09:02:21.946Z,89.80
2019-01-30T09:04:51.889Z,89.70
2019-01-30T09:07:21.895Z,89.00
2019-01-30T09:09:51.831Z,88.50
2019-01-30T09:12:21.755Z,88.60
2019-01-30T09:14:51.696Z,85.60
2019-01-30T09:17:21.570Z,85.10
2019-01-30T09:19:53.038Z,85.30
2019-01-30T09:22:23.034Z,85.40
2019-01-30T09:24:53.106Z,84.60
2019-01-30T09:27:24.316Z,84.90
2019-01-30T09:29:54.274Z,86.20
2019-01-30T09:32:24.297Z,85.20
2019-01-30T09:34:54.137Z,86.20
2019-01-30T09:37:24.052Z,85.70
2019-01-30T09:39:53.992Z,84.00
2019-01-30T09:42:24.011Z,83.90
2019-01-30T09:44:54.195Z,83.60
2019-01-30T09:47:24.367Z,83.80
2019-01-30T09:49:54.279Z,85.20
2019-01-30T09:52:26.978Z,86.90
2019-01-30T09:54:56.145Z,85.60
2019-01-30T09:57:26.063Z,88.80
2019-01-30T09:59:55.989Z,90.70
2019-01-30T10:02:25.864Z,91.70
2019-01-30T10:04:55.762Z,91.90
2019-01-30T10:07:25.685Z,91.60
2019-01-30T10:09:55.581Z,91.70
2019-01-30T10:12:25.514Z,90.90
2019-01-30T10:14:55.365Z,91.20
2019-01-30T10:17:25.751Z,90.80
2019-01-30T10:19:55.677Z,90.90
2019-01-30T10:22:25.671Z,89.30
2019-01-30T10:24:55.789Z,89.60
2019-01-30T10:27:25.709Z,90.00
2019-01-30T10:29:55.613Z,90.10
2019-01-30T10:32:25.926Z,89.30
2019-01-30T10:34:55.805Z,88.40
2019-01-30T10:37:25.669Z,86.50
2019-01-30T10:39:55.582Z,87.30
2019-01-30T10:42:25.548Z,86.50
2019-01-30T10:44:55.411Z,85.60
2019-01-30T10:47:25.372Z,85.60
2019-01-30T10:49:55.358Z,85.40
2019-01-30T10:52:25.346Z,85.30
2019-01-30T10:54:55.405Z,84.40
2019-01-30T10:57:25.320Z,83.10
2019-01-30T10:59:55.237Z,83.20
2019-01-30T11:02:25.165Z,83.00
2019-01-30T11:04:55.085Z,82.60
2019-01-30T11:07:24.943Z,81.40
2019-01-30T11:09:54.866Z,81.20
2019-01-30T11:12:24.792Z,80.00
2019-01-30T11:14:54.733Z,79.80
2019-01-30T11:17:24.759Z,78.70
2019-01-30T11:19:54.706Z,79.20
2019-01-30T11:22:24.677Z,79.30
2019-01-30T11:24:55.830Z,77.30
2019-01-30T11:27:25.710Z,79.50
2019-01-30T11:29:55.657Z,79.80
2019-01-30T11:32:25.552Z,76.60
2019-01-30T11:34:55.535Z,78.20
2019-01-30T11:37:25.422Z,76.00
2019-01-30T11:39:55.293Z,74.80
2019-01-30T11:42:25.150Z,73.70
2019-01-30T11:44:55.080Z,73.10
2019-01-30T11:47:24.979Z,71.10
2019-01-30T11:49:54.925Z,72.40
2019-01-30T11:52:24.915Z,69.70
2019-01-30T11:54:54.925Z,68.00
2019-01-30T11:57:24.895Z,68.60
2019-01-30T11:59:54.904Z,66.70
2019-01-30T12:02:24.874Z,66.60
2019-01-30T12:04:54.819Z,67.20
2019-01-30T12:07:24.873Z,62.10
2019-01-30T12:09:55.983Z,61.30
2019-01-30T12:12:26.073Z,60.70
2019-01-30T12:14:56.076Z,60.70
2019-01-30T12:17:25.953Z,61.80
2019-01-30T12:19:55.824Z,61.30
2019-01-30T12:22:25.716Z,64.10
2019-01-30T12:24:55.667Z,64.60
2019-01-30T12:27:25.593Z,64.30
2019-01-30T12:29:55.536Z,63.10
2019-01-30T12:32:25.418Z,64.40
2019-01-30T12:34:55.298Z,64.50
2019-01-30T12:37:25.213Z,64.20
2019-01-30T12:39:55.058Z,64.50
2019-01-30T12:42:24.973Z,63.20
2019-01-30T12:44:54.881Z,62.90
2019-01-30T12:47:24.772Z,63.90
2019-01-30T12:49:55.088Z,63.20
2019-01-30T12:52:25.061Z,62.40
2019-01-30T12:54:54.954Z,62.80
2019-01-30T12:57:24.888Z,61.20
2019-01-30T12:59:54.798Z,62.40
2019-01-30T13:02:24.749Z,61.30
2019-01-30T13:04:54.654Z,62.90
2019-01-30T13:07:24.702Z,61.50
2019-01-30T13:09:54.526Z,61.50
2019-01-30T13:12:24.489Z,62.00
2019-01-30T13:14:54.310Z,61.00
2019-01-30T13:17:24.228Z,61.80
2019-01-30T13:19:54.101Z,61.40
2019-01-30T13:22:24.006Z,60.50
2019-01-30T13:24:53.899Z,61.40
2019-01-30T13:27:23.827Z,59.60
2019-01-30T13:29:53.732Z,60.10
2019-01-30T13:32:23.624Z,61.60
2019-01-30T13:34:53.527Z,61.30
2019-01-30T13:37:23.452Z,62.20
2019-01-30T13:39:53.349Z,62.80
2019-01-30T13:42:23.281Z,61.20
2019-01-30T13:44:53.163Z,60.80
2019-01-30T13:47:23.077Z,61.00
2019-01-30T13:49:53.006Z,61.90
2019-01-30T13:52:22.965Z,61.70
2019-01-30T13:54:54.107Z,61.40
2019-01-30T13:57:24.086Z,61.20
2019-01-30T13:59:54.053Z,61.50
2019-01-30T14:02:24.092Z,62.40
2019-01-30T14:04:59.489Z,61.60
2019-01-30T14:07:25.555Z,62.20
2019-01-30T14:09:55.585Z,62.40
2019-01-30T14:12:25.533Z,63.20
2019-01-30T14:14:55.434Z,63.00
2019-01-30T14:17:25.383Z,63.90
2019-01-30T14:19:55.327Z,63.80
2019-01-30T14:22:25.233Z,63.80
2019-01-30T14:24:55.061Z,64.90
2019-01-30T14:27:24.987Z,66.00
2019-01-30T14:29:58.324Z,66.70
2019-01-30T14:32:26.481Z,68.30
2019-01-30T14:34:56.356Z,68.60
2019-01-30T14:37:26.300Z,68.60
2019-01-30T14:39:56.248Z,68.10
2019-01-30T14:42:26.202Z,66.20
2019-01-30T14:44:56.083Z,66.10
2019-01-30T14:47:26.059Z,66.40
2019-01-30T14:49:55.948Z,67.10
2019-01-30T14:52:25.917Z,67.80
2019-01-30T14:54:55.829Z,67.80
2019-01-30T14:57:25.714Z,69.00
2019-01-30T14:59:56.014Z,67.70
2019-01-30T15:02:25.821Z,68.40
2019-01-30T15:04:55.745Z,68.60
2019-01-30T15:07:29.058Z,70.20
2019-01-30T15:09:57.589Z,69.80
2019-01-30T15:12:27.417Z,71.10
2019-01-30T15:14:57.433Z,71.40
2019-01-30T15:17:27.286Z,70.00
2019-01-30T15:19:57.265Z,71.30
2019-01-30T15:22:27.161Z,70.60
2019-01-30T15:24:57.176Z,71.40
2019-01-30T15:27:27.101Z,70.90
2019-01-30T15:29:57.094Z,71.00
2019-01-30T15:32:26.986Z,71.30
2019-01-30T15:34:56.848Z,72.00
2019-01-30T15:37:26.748Z,72.60
2019-01-30T15:39:56.669Z,72.80
2019-01-30T15:42:26.504Z,72.10
2019-01-30T15:44:56.404Z,71.80
2019-01-30T15:47:26.297Z,71.70
2019-01-30T15:49:56.194Z,72.00
2019-01-30T15:52:26.138Z,72.70
2019-01-30T15:54:56.078Z,73.00
2019-01-30T15:57:25.924Z,73.20
2019-01-30T15:59:55.856Z,73.70
2019-01-30T16:02:25.744Z,74.20
2019-01-30T16:04:56.042Z,74.60
2019-01-30T16:07:25.982Z,75.10
2019-01-30T16:09:55.945Z,75.20
2019-01-30T16:12:25.793Z,74.30
2019-01-30T16:14:55.741Z,74.00
2019-01-30T16:17:25.719Z,74.10
2019-01-30T16:19:55.770Z,74.10
2019-01-30T16:22:25.674Z,74.50
2019-01-30T16:24:55.597Z,75.10
2019-01-30T16:27:25.545Z,75.50
2019-01-30T16:29:55.450Z,75.50
2019-01-30T16:32:25.363Z,75.70
2019-01-30T16:34:55.294Z,76.00
2019-01-30T16:37:25.233Z,76.20
2019-01-30T16:39:55.121Z,76.00
2019-01-30T16:42:25.034Z,76.20
2019-01-30T16:44:54.974Z,77.00
2019-01-30T16:47:24.873Z,76.70
2019-01-30T16:49:54.842Z,76.50
2019-01-30T16:52:24.710Z,77.00
2019-01-30T16:54:54.627Z,76.90
2019-01-30T16:57:24.522Z,77.40
2019-01-30T16:59:54.490Z,77.40
2019-01-30T17:02:24.382Z,77.40
2019-01-30T17:04:54.299Z,78.10
2019-01-30T17:07:24.237Z,78.70
2019-01-30T17:09:54.126Z,78.60
2019-01-30T17:12:24.033Z,78.70
2019-01-30T17:14:53.878Z,78.70
2019-01-30T17:17:23.778Z,78.90
2019-01-30T17:19:53.673Z,79.10
2019-01-30T17:22:23.562Z,79.80
2019-01-30T17:24:53.635Z,80.10
2019-01-30T17:27:23.627Z,80.20
2019-01-30T17:29:53.686Z,80.10
2019-01-30T17:32:23.760Z,80.20
2019-01-30T17:34:53.687Z,80.80
2019-01-30T17:37:23.604Z,81.10
2019-01-30T17:39:53.565Z,81.20
2019-01-30T17:42:23.504Z,80.90
2019-01-30T17:44:53.321Z,80.90
2019-01-30T17:47:23.332Z,81.10
2019-01-30T17:49:53.243Z,81.60
2019-01-30T17:52:23.225Z,81.20
2019-01-30T17:54:53.134Z,81.70
2019-01-30T17:57:23.174Z,82.10
2019-01-30T17:59:53.465Z,82.40
2019-01-30T18:02:26.212Z,82.60
2019-01-30T18:04:55.598Z,82.60
2019-01-30T18:07:25.538Z,82.70
2019-01-30T18:09:55.452Z,82.90
2019-01-30T18:12:25.391Z,82.80
2019-01-30T18:14:55.326Z,82.80
2019-01-30T18:17:27.113Z,82.80
2019-01-30T18:19:56.869Z,83.10
2019-01-30T18:22:26.785Z,82.70
2019-01-30T18:24:57.155Z,82.80
2019-01-30T18:27:27.066Z,83.30
2019-01-30T18:29:57.063Z,83.10
2019-01-30T18:32:27.059Z,83.70
2019-01-30T18:34:56.991Z,84.00
2019-01-30T18:37:26.922Z,84.60
2019-01-30T18:39:56.827Z,84.60
2019-01-30T18:42:27.085Z,85.00
2019-01-30T18:44:57.018Z,84.80
2019-01-30T18:47:26.957Z,84.80
2019-01-30T18:49:56.888Z,84.70
2019-01-30T18:52:26.843Z,84.60
2019-01-30T18:54:56.741Z,84.20
2019-01-30T18:57:26.674Z,84.70
2019-01-30T18:59:57.671Z,83.80
2019-01-30T19:02:27.620Z,83.50
2019-01-30T19:04:57.539Z,83.90
2019-01-30T19:07:27.641Z,84.00
2019-01-30T19:09:57.469Z,83.70
2019-01-30T19:12:27.394Z,84.00
2019-01-30T19:14:57.950Z,83.60
2019-01-30T19:17:28.064Z,83.20
2019-01-30T19:19:58.294Z,83.60
2019-01-30T19:22:28.355Z,84.20
2019-01-30T19:24:58.323Z,84.80
2019-01-30T19:27:28.285Z,84.80
2019-01-30T19:29:58.217Z,84.30
2019-01-30T19:32:28.067Z,84.40
2019-01-30T19:35:08.391Z,84.30
2019-01-30T19:37:38.309Z,83.60
2019-01-30T19:40:08.666Z,84.20
2019-01-30T19:42:38.665Z,83.90
2019-01-30T19:45:11.580Z,83.40
2019-01-30T19:47:42.630Z,83.00
2019-01-30T19:50:17.964Z,83.60
2019-01-30T19:52:47.957Z,83.50
2019-01-30T19:55:17.901Z,84.10
2019-01-30T19:57:47.831Z,84.30
2019-01-30T20:00:38.198Z,84.70
2019-01-30T20:03:11.299Z,84.60
2019-01-30T20:05:41.404Z,84.70
2019-01-30T20:08:12.168Z,85.20
2019-01-30T20:10:42.528Z,85.10
2019-01-30T20:13:12.578Z,85.20
2019-01-30T20:15:42.551Z,85.30
2019-01-30T20:18:12.670Z,85.80
2019-01-30T20:20:42.601Z,85.80
2019-01-30T20:23:15.221Z,86.00
2019-01-30T20:25:45.212Z,86.10
2019-01-30T20:28:15.445Z,86.60
2019-01-30T20:30:45.386Z,86.20
2019-01-30T20:33:15.290Z,86.70
2019-01-30T20:35:45.212Z,86.70
2019-01-30T20:38:15.121Z,87.00
2019-01-30T20:40:44.978Z,87.20
2019-01-30T20:43:14.817Z,87.00
2019-01-30T20:45:44.654Z,87.10
2019-01-30T20:48:14.681Z,87.40
2019-01-30T20:50:44.586Z,87.60
2019-01-30T20:53:14.514Z,87.90
2019-01-30T20:55:44.946Z,87.70
2019-01-30T20:58:14.854Z,87.80
2019-01-30T21:00:45.012Z,87.70
2019-01-30T21:03:15.012Z,87.30
2019-01-30T21:05:45.197Z,87.30
2019-01-30T21:08:15.107Z,87.20
2019-01-30T21:10:45.090Z,87.10
2019-01-30T21:13:15.032Z,87.00
2019-01-30T21:15:44.865Z,87.00
2019-01-30T21:18:14.687Z,86.60
2019-01-30T21:20:44.595Z,86.70
2019-01-30T21:23:14.479Z,86.50
2019-01-30T21:25:44.326Z,86.10
2019-01-30T21:28:14.218Z,86.50
2019-01-30T21:30:44.333Z,86.20
2019-01-30T21:33:14.156Z,86.10
2019-01-30T21:35:44.089Z,85.80
2019-01-30T21:38:13.973Z,86.20
2019-01-30T21:40:43.944Z,85.10
2019-01-30T21:43:13.861Z,84.70
2019-01-30T21:45:43.712Z,85.00
2019-01-30T21:48:13.750Z,84.70
2019-01-30T21:50:43.706Z,84.50
2019-01-30T21:53:13.634Z,84.30
2019-01-30T21:55:43.647Z,84.90
2019-01-30T21:58:13.727Z,84.70
2019-01-30T22:00:43.852Z,84.10
2019-01-30T22:03:15.734Z,84.10
2019-01-30T22:05:45.679Z,84.50
2019-01-30T22:08:15.621Z,84.30
2019-01-30T22:10:45.648Z,84.10
2019-01-30T22:13:15.505Z,84.00
2019-01-30T22:15:45.489Z,83.60
2019-01-30T22:18:15.375Z,84.30
2019-01-30T22:20:45.505Z,82.90
2019-01-30T22:23:15.421Z,82.70
2019-01-30T22:25:45.365Z,83.00
2019-01-30T22:28:15.305Z,83.30
2019-01-30T22:30:45.228Z,83.70
2019-01-30T22:33:15.199Z,83.50
2019-01-30T22:35:45.148Z,83.90
2019-01-30T22:38:15.252Z,84.10
2019-01-30T22:40:45.137Z,84.00
2019-01-30T22:43:15.117Z,84.10
2019-01-30T22:45:45.145Z,84.50
2019-01-30T22:48:15.072Z,84.20
2019-01-30T22:50:45.047Z,84.60
2019-01-30T22:53:15.086Z,83.70
2019-01-30T22:55:45.044Z,83.70
2019-01-30T22:58:15.329Z,84.30
2019-01-30T23:01:34.857Z,84.40
2019-01-30T23:04:39.337Z,84.80
2019-01-30T23:07:34.065Z,85.40
2019-01-30T23:10:42.393Z,84.40
2019-01-30T23:14:01.287Z,83.90
2019-01-30T23:17:15.850Z,83.90
2019-01-30T23:20:26.147Z,84.10
2019-01-30T23:23:32.015Z,84.50
2019-01-30T23:26:32.321Z,85.10
2019-01-30T23:29:36.955Z,85.20
2019-01-30T23:32:35.390Z,85.20
2019-01-30T23:35:58.819Z,84.70
2019-01-30T23:38:54.913Z,84.90
2019-01-30T23:41:49.465Z,85.00
2019-01-30T23:45:02.169Z,85.00
2019-01-30T23:48:10.307Z,85.20
2019-01-30T23:51:39.282Z,85.40
2019-01-30T23:54:39.131Z,85.60
2019-01-30T23:57:32.343Z,85.30
